createdAt,value
2022-11-18T00:00:16.604Z,16.30
2022-11-18T00:02:45.141Z,16.30
2022-11-18T00:05:13.603Z,16.30
2022-11-18T00:07:42.366Z,16.30
2022-11-18T00:10:12.253Z,16.30
2022-11-18T00:12:57.684Z,16.30
2022-11-18T00:15:31.453Z,16.20
2022-11-18T00:18:00.168Z,16.20
2022-11-18T00:20:28.605Z,16.20
2022-11-18T00:22:57.050Z,16.10
2022-11-18T00:25:26.849Z,16.10
2022-11-18T00:27:55.489Z,16.10
2022-11-18T00:30:25.056Z,16.10
2022-11-18T00:32:53.560Z,16.10
2022-11-18T00:35:21.909Z,16.10
2022-11-18T00:37:50.394Z,16.20
2022-11-18T00:40:19.128Z,16.20
2022-11-18T00:42:56.433Z,16.20
2022-11-18T00:45:25.052Z,16.30
2022-11-18T00:47:53.468Z,16.40
2022-11-18T00:50:21.992Z,16.40
2022-11-18T00:52:50.459Z,16.50
2022-11-18T00:55:19.002Z,16.60
2022-11-18T00:57:48.825Z,16.50
2022-11-18T01:00:17.865Z,16.50
2022-11-18T01:02:46.357Z,16.50
2022-11-18T01:05:14.843Z,16.50
2022-11-18T01:07:43.355Z,16.50
2022-11-18T01:10:11.817Z,16.50
2022-11-18T01:12:57.895Z,16.50
2022-11-18T01:15:27.662Z,16.60
2022-11-18T01:17:56.101Z,16.80
2022-11-18T01:20:24.612Z,16.90
2022-11-18T01:22:53.002Z,17.00
2022-11-18T01:25:21.481Z,17.00
2022-11-18T01:27:49.981Z,17.10
2022-11-18T01:30:18.426Z,17.00
2022-11-18T01:32:48.264Z,17.10
2022-11-18T01:35:16.785Z,17.10
2022-11-18T01:37:45.250Z,17.10
2022-11-18T01:40:13.856Z,17.20
2022-11-18T01:42:42.355Z,17.20
2022-11-18T01:45:21.237Z,17.10
2022-11-18T01:47:53.124Z,17.10
2022-11-18T01:50:23.032Z,17.10
2022-11-18T01:52:52.290Z,17.10
2022-11-18T01:55:25.727Z,17.10
2022-11-18T01:57:57.052Z,17.20
2022-11-18T02:00:25.625Z,17.20
2022-11-18T02:02:55.660Z,17.40
2022-11-18T02:05:25.065Z,17.40
2022-11-18T02:07:53.660Z,17.50
2022-11-18T02:10:23.430Z,17.40
2022-11-18T02:12:52.388Z,17.50
2022-11-18T02:15:24.449Z,17.50
2022-11-18T02:17:56.769Z,17.60
2022-11-18T02:20:31.666Z,17.60
2022-11-18T02:23:12.762Z,17.70
2022-11-18T02:25:48.459Z,17.60
2022-11-18T02:28:32.910Z,17.70
2022-11-18T02:31:06.198Z,17.70
2022-11-18T02:33:37.971Z,17.70
2022-11-18T02:36:09.675Z,17.70
2022-11-18T02:38:44.091Z,17.70
2022-11-18T02:41:15.570Z,17.80
2022-11-18T02:43:47.332Z,17.80
2022-11-18T02:46:19.085Z,17.90
2022-11-18T02:48:49.558Z,17.90
2022-11-18T02:51:19.715Z,17.90
2022-11-18T02:53:49.046Z,17.90
2022-11-18T02:56:18.441Z,17.80
2022-11-18T02:58:46.972Z,17.80
2022-11-18T03:01:19.643Z,17.80
2022-11-18T03:03:48.517Z,17.70
2022-11-18T03:06:24.232Z,17.60
2022-11-18T03:08:56.206Z,17.60
2022-11-18T03:11:25.370Z,17.60
2022-11-18T03:14:03.111Z,17.70
2022-11-18T03:16:35.350Z,17.80
2022-11-18T03:19:08.684Z,17.80
2022-11-18T03:21:38.974Z,17.90
2022-11-18T03:24:10.922Z,18.00
2022-11-18T03:26:40.709Z,18.00
2022-11-18T03:29:11.277Z,17.90
2022-11-18T03:31:42.693Z,17.80
2022-11-18T03:34:12.485Z,17.80
2022-11-18T03:36:43.200Z,17.80
2022-11-18T03:39:13.504Z,17.80
2022-11-18T03:41:45.783Z,17.80
2022-11-18T03:44:19.182Z,17.80
2022-11-18T03:46:50.481Z,17.80
2022-11-18T03:49:20.968Z,17.70
2022-11-18T03:51:51.025Z,17.70
2022-11-18T03:54:22.119Z,17.70
2022-11-18T03:56:52.688Z,17.70
2022-11-18T03:59:22.712Z,17.70
2022-11-18T04:01:53.979Z,17.60
2022-11-18T04:04:22.897Z,17.60
2022-11-18T04:06:53.790Z,17.50
2022-11-18T04:09:26.307Z,17.40
2022-11-18T04:12:05.868Z,17.50
2022-11-18T04:14:35.294Z,17.50
2022-11-18T04:17:08.961Z,17.40
2022-11-18T04:19:37.685Z,17.30
2022-11-18T04:22:06.357Z,17.20
2022-11-18T04:24:34.804Z,17.30
2022-11-18T04:27:04.426Z,17.30
2022-11-18T04:29:33.249Z,17.40
2022-11-18T04:32:02.233Z,17.40
2022-11-18T04:34:32.001Z,17.50
2022-11-18T04:37:00.426Z,17.50
2022-11-18T04:39:29.674Z,17.60
2022-11-18T04:41:58.138Z,17.50
2022-11-18T04:44:27.396Z,17.50
2022-11-18T04:46:56.423Z,17.50
2022-11-18T04:49:25.197Z,17.50
2022-11-18T04:51:55.415Z,17.60
2022-11-18T04:54:24.637Z,17.60
2022-11-18T04:56:53.599Z,17.60
2022-11-18T04:59:23.542Z,17.50
2022-11-18T05:01:52.157Z,17.50
2022-11-18T05:04:21.530Z,17.50
2022-11-18T05:06:50.163Z,17.60
2022-11-18T05:09:20.593Z,17.60
2022-11-18T05:12:06.796Z,17.60
2022-11-18T05:14:35.174Z,17.60
2022-11-18T05:17:04.815Z,17.70
2022-11-18T05:19:33.333Z,17.80
2022-11-18T05:22:01.859Z,18.00
2022-11-18T05:24:31.644Z,18.20
2022-11-18T05:27:00.036Z,18.30
2022-11-18T05:29:28.458Z,18.30
2022-11-18T05:31:56.882Z,18.30
2022-11-18T05:34:25.357Z,18.30
2022-11-18T05:36:53.730Z,18.30
2022-11-18T05:39:22.117Z,18.30
2022-11-18T05:42:09.307Z,18.30
2022-11-18T05:44:37.772Z,18.30
2022-11-18T05:47:06.313Z,18.30
2022-11-18T05:49:34.763Z,18.30
2022-11-18T05:52:03.345Z,18.30
2022-11-18T05:54:31.789Z,18.40
2022-11-18T05:57:01.681Z,18.40
2022-11-18T05:59:30.058Z,18.40
2022-11-18T06:01:59.805Z,18.30
2022-11-18T06:04:32.005Z,18.40
2022-11-18T06:07:03.805Z,18.40
2022-11-18T06:09:33.495Z,18.30
2022-11-18T06:12:05.487Z,18.30
2022-11-18T06:14:37.373Z,18.30
2022-11-18T06:17:06.942Z,18.30
2022-11-18T06:19:35.411Z,18.30
2022-11-18T06:22:05.036Z,18.20
2022-11-18T06:24:33.690Z,18.20
2022-11-18T06:27:04.149Z,18.20
2022-11-18T06:29:32.682Z,18.10
2022-11-18T06:32:01.179Z,18.20
2022-11-18T06:34:29.633Z,18.20
2022-11-18T06:36:57.987Z,18.20
2022-11-18T06:39:26.389Z,18.20
2022-11-18T06:41:54.790Z,18.10
2022-11-18T06:44:23.513Z,18.00
2022-11-18T06:46:57.722Z,18.00
2022-11-18T06:49:26.753Z,17.90
2022-11-18T06:51:55.261Z,17.90
2022-11-18T06:54:23.690Z,17.90
2022-11-18T06:56:52.182Z,17.90
2022-11-18T06:59:23.910Z,17.90
2022-11-18T07:01:54.395Z,17.90
2022-11-18T07:04:22.828Z,17.90
2022-11-18T07:06:51.300Z,17.80
2022-11-18T07:09:20.199Z,17.80
2022-11-18T07:11:48.725Z,17.80
2022-11-18T07:14:17.251Z,17.70
2022-11-18T07:16:45.594Z,17.70
2022-11-18T07:19:15.631Z,17.70
2022-11-18T07:21:44.349Z,17.70
2022-11-18T07:24:13.783Z,17.80
2022-11-18T07:26:42.567Z,17.80
2022-11-18T07:29:12.847Z,17.90
2022-11-18T07:31:41.445Z,17.90
2022-11-18T07:34:09.874Z,18.00
2022-11-18T07:36:39.722Z,18.00
2022-11-18T07:39:08.516Z,18.10
2022-11-18T07:41:37.135Z,18.10
2022-11-18T07:44:07.529Z,18.10
2022-11-18T07:46:37.885Z,18.20
2022-11-18T07:49:08.775Z,18.30
2022-11-18T07:51:41.365Z,18.50
2022-11-18T07:54:10.529Z,18.70
2022-11-18T07:56:39.070Z,18.80
2022-11-18T07:59:07.852Z,19.00
2022-11-18T08:01:36.554Z,19.00
2022-11-18T08:04:08.418Z,19.00
2022-11-18T08:06:37.095Z,19.00
2022-11-18T08:09:07.830Z,19.00
2022-11-18T08:11:36.774Z,19.00
2022-11-18T08:14:05.181Z,19.00
2022-11-18T08:16:33.577Z,19.10
2022-11-18T08:19:01.974Z,19.20
2022-11-18T08:21:30.499Z,19.30
2022-11-18T08:23:59.824Z,19.40
2022-11-18T08:26:29.628Z,19.40
2022-11-18T08:28:58.332Z,19.50
2022-11-18T08:31:27.911Z,19.50
2022-11-18T08:33:57.016Z,19.60
2022-11-18T08:36:26.774Z,19.90
2022-11-18T08:38:56.361Z,20.10
2022-11-18T08:41:29.329Z,20.30
2022-11-18T08:43:59.127Z,20.60
2022-11-18T08:46:27.512Z,20.70
2022-11-18T08:48:55.941Z,20.80
2022-11-18T08:51:24.672Z,20.80
2022-11-18T08:53:53.225Z,20.90
2022-11-18T08:56:23.454Z,21.00
2022-11-18T08:58:52.205Z,21.00
2022-11-18T09:01:22.053Z,21.00
2022-11-18T09:03:50.787Z,20.90
2022-11-18T09:06:20.153Z,20.80
2022-11-18T09:08:48.902Z,20.80
2022-11-18T09:11:17.988Z,20.80
2022-11-18T09:14:38.945Z,20.70
2022-11-18T09:16:36.714Z,20.70
2022-11-18T09:19:39.640Z,20.80
2022-11-18T09:21:55.558Z,20.90
2022-11-18T09:24:24.106Z,21.10
2022-11-18T09:26:53.791Z,21.10
2022-11-18T09:29:26.055Z,21.10
2022-11-18T09:31:56.188Z,21.20
2022-11-18T09:34:24.608Z,21.20
2022-11-18T09:36:57.065Z,21.20
2022-11-18T09:39:25.984Z,21.20
2022-11-18T09:42:01.757Z,21.10
2022-11-18T09:44:35.711Z,21.10
2022-11-18T09:47:10.143Z,21.00
2022-11-18T09:49:39.965Z,21.00
2022-11-18T09:52:12.261Z,21.00
2022-11-18T09:54:41.001Z,20.90
2022-11-18T09:57:14.395Z,20.90
2022-11-18T09:59:43.131Z,20.80
2022-11-18T10:02:30.172Z,20.80
2022-11-18T10:05:02.833Z,20.80
2022-11-18T10:07:36.620Z,20.80
2022-11-18T10:10:09.254Z,20.80
2022-11-18T10:12:43.136Z,20.80
2022-11-18T10:15:18.231Z,20.70
2022-11-18T10:17:51.509Z,20.80
2022-11-18T10:20:24.425Z,20.80
2022-11-18T10:22:55.602Z,20.80
2022-11-18T10:25:24.053Z,20.80
2022-11-18T10:27:53.148Z,20.90
2022-11-18T10:30:22.630Z,20.90
2022-11-18T10:32:54.917Z,20.90
2022-11-18T10:35:29.187Z,20.90
2022-11-18T10:38:08.874Z,21.00
2022-11-18T10:40:38.902Z,20.90
2022-11-18T10:43:07.363Z,20.80
2022-11-18T10:45:35.990Z,20.90
2022-11-18T10:48:09.386Z,20.90
2022-11-18T10:50:40.474Z,20.80
2022-11-18T10:53:26.049Z,20.80
2022-11-18T10:55:58.757Z,20.80
2022-11-18T10:58:27.286Z,20.80
2022-11-18T11:01:05.501Z,20.80
2022-11-18T11:03:35.116Z,20.80
2022-11-18T11:06:38.056Z,20.80
2022-11-18T11:09:09.195Z,20.80
2022-11-18T11:11:40.179Z,20.80
2022-11-18T11:14:14.619Z,20.90
2022-11-18T11:16:47.077Z,20.90
2022-11-18T11:19:16.208Z,20.90
2022-11-18T11:21:44.640Z,20.80
2022-11-18T11:24:14.528Z,20.80
2022-11-18T11:29:39.231Z,20.80
2022-11-18T11:32:12.131Z,20.70
2022-11-18T11:34:44.673Z,20.70
2022-11-18T11:37:19.024Z,20.70
2022-11-18T11:40:03.502Z,20.70
2022-11-18T11:42:37.145Z,20.90
2022-11-18T11:45:14.646Z,21.00
2022-11-18T11:47:48.121Z,21.00
2022-11-18T11:50:20.440Z,21.10
2022-11-18T11:52:51.527Z,21.00
2022-11-18T11:55:25.729Z,21.00
2022-11-18T11:58:05.389Z,21.00
2022-11-18T12:00:36.135Z,20.90
2022-11-18T12:03:11.059Z,20.90
2022-11-18T12:05:43.068Z,21.00
2022-11-18T12:08:14.136Z,20.90
2022-11-18T12:10:46.553Z,20.90
2022-11-18T12:13:31.223Z,20.80
2022-11-18T12:16:12.084Z,20.80
2022-11-18T12:18:43.087Z,20.80
2022-11-18T12:21:44.808Z,20.80
2022-11-18T12:24:31.063Z,20.90
2022-11-18T12:27:02.004Z,21.00
2022-11-18T12:29:36.676Z,21.00
2022-11-18T12:32:05.271Z,21.10
2022-11-18T12:34:37.290Z,21.20
2022-11-18T12:37:24.112Z,21.10
2022-11-18T12:39:59.429Z,20.90
2022-11-18T12:43:08.821Z,20.90
2022-11-18T12:45:58.459Z,20.80
2022-11-18T12:48:32.786Z,20.80
2022-11-18T12:51:01.908Z,20.70
2022-11-18T12:53:32.993Z,20.70
2022-11-18T12:56:01.452Z,20.70
2022-11-18T12:58:29.897Z,20.80
2022-11-18T13:01:11.448Z,20.80
2022-11-18T13:03:41.314Z,20.80
2022-11-18T13:06:15.996Z,20.90
2022-11-18T13:08:44.468Z,21.00
2022-11-18T13:11:33.814Z,21.10
2022-11-18T13:14:20.065Z,21.00
2022-11-18T13:17:06.544Z,20.90
2022-11-18T13:19:36.542Z,20.80
2022-11-18T13:22:22.674Z,20.70
2022-11-18T13:24:53.172Z,20.70
2022-11-18T13:27:29.826Z,20.70
2022-11-18T13:30:02.405Z,20.70
2022-11-18T13:32:31.058Z,20.70
2022-11-18T13:35:08.781Z,20.70
2022-11-18T13:37:37.222Z,20.70
2022-11-18T13:40:06.767Z,20.70
2022-11-18T13:42:35.188Z,20.80
2022-11-18T13:45:04.390Z,20.80
2022-11-18T13:47:36.569Z,20.80
2022-11-18T13:50:12.754Z,20.70
2022-11-18T13:52:44.288Z,20.60
2022-11-18T13:55:19.754Z,20.60
2022-11-18T13:57:49.377Z,20.50
2022-11-18T14:00:24.962Z,20.50
2022-11-18T14:02:56.465Z,20.40
2022-11-18T14:05:26.336Z,20.40
2022-11-18T14:08:02.351Z,20.40
2022-11-18T14:10:34.172Z,20.40
2022-11-18T14:13:17.207Z,20.40
2022-11-18T14:15:45.808Z,20.40
2022-11-18T14:18:19.387Z,20.50
2022-11-18T14:20:53.076Z,20.50
2022-11-18T14:23:24.076Z,20.50
2022-11-18T14:25:52.426Z,20.60
2022-11-18T14:28:22.649Z,20.60
2022-11-18T14:31:01.214Z,20.60
2022-11-18T14:33:29.868Z,20.50
2022-11-18T14:36:00.753Z,20.30
2022-11-18T14:38:52.064Z,20.30
2022-11-18T14:41:44.354Z,20.70
2022-11-18T14:44:14.507Z,20.50
2022-11-18T14:46:44.236Z,20.30
2022-11-18T14:49:14.111Z,20.30
2022-11-18T14:51:44.016Z,20.40
2022-11-18T14:54:13.552Z,20.40
2022-11-18T14:56:42.593Z,20.40
2022-11-18T14:59:12.948Z,20.20
2022-11-18T15:01:41.787Z,20.00
2022-11-18T15:04:10.406Z,19.90
2022-11-18T15:06:39.053Z,19.70
2022-11-18T15:09:09.041Z,19.70
2022-11-18T15:11:37.452Z,19.50
2022-11-18T15:14:05.874Z,19.30
2022-11-18T15:16:36.283Z,19.10
2022-11-18T15:19:05.445Z,19.00
2022-11-18T15:21:34.017Z,19.00
2022-11-18T15:24:02.437Z,19.00
2022-11-18T15:26:37.362Z,19.00
2022-11-18T15:29:05.846Z,18.90
2022-11-18T15:31:34.194Z,18.80
2022-11-18T15:34:06.804Z,18.70
2022-11-18T15:36:35.443Z,18.70
2022-11-18T15:39:05.030Z,18.60
2022-11-18T15:41:34.862Z,18.60
2022-11-18T15:44:03.768Z,18.60
2022-11-18T15:46:33.754Z,18.60
2022-11-18T15:49:02.510Z,18.50
2022-11-18T15:51:31.560Z,18.60
2022-11-18T15:53:59.989Z,18.60
2022-11-18T15:56:29.174Z,18.60
2022-11-18T15:59:00.072Z,18.60
2022-11-18T16:01:29.348Z,18.50
2022-11-18T16:03:58.024Z,18.50
2022-11-18T16:06:26.798Z,18.50
2022-11-18T16:08:59.490Z,18.50
2022-11-18T16:11:46.690Z,18.40
2022-11-18T16:14:18.393Z,18.40
2022-11-18T16:16:47.706Z,18.30
2022-11-18T16:19:17.004Z,18.30
2022-11-18T16:21:47.276Z,18.30
2022-11-18T16:24:17.351Z,18.30
2022-11-18T16:26:46.002Z,18.30
2022-11-18T16:29:15.988Z,18.30
2022-11-18T16:31:50.475Z,18.30
2022-11-18T16:34:20.081Z,18.20
2022-11-18T16:36:49.283Z,18.20
2022-11-18T16:39:19.018Z,18.20
2022-11-18T16:41:47.621Z,18.20
2022-11-18T16:44:16.803Z,18.10
2022-11-18T16:46:48.779Z,18.10
2022-11-18T16:49:18.603Z,18.10
2022-11-18T16:51:47.781Z,18.10
2022-11-18T16:54:18.103Z,18.00
2022-11-18T16:56:46.841Z,17.90
2022-11-18T16:59:16.464Z,17.80
2022-11-18T17:01:45.151Z,17.80
2022-11-18T17:04:15.037Z,17.80
2022-11-18T17:06:43.444Z,17.80
2022-11-18T17:09:14.204Z,17.80
2022-11-18T17:11:42.677Z,17.70
2022-11-18T17:14:11.196Z,17.70
2022-11-18T17:16:39.594Z,17.60
2022-11-18T17:19:11.793Z,17.60
2022-11-18T17:21:47.344Z,17.60
2022-11-18T17:24:17.044Z,17.60
2022-11-18T17:26:46.063Z,17.50
2022-11-18T17:29:15.033Z,17.50
2022-11-18T17:31:43.687Z,17.50
2022-11-18T17:34:13.088Z,17.40
2022-11-18T17:36:41.806Z,17.40
2022-11-18T17:39:12.458Z,17.40
2022-11-18T17:41:58.548Z,17.40
2022-11-18T17:44:28.407Z,17.50
2022-11-18T17:46:56.890Z,17.40
2022-11-18T17:49:25.348Z,17.40
2022-11-18T17:51:53.765Z,17.40
2022-11-18T17:54:23.756Z,17.40
2022-11-18T17:56:53.029Z,17.40
2022-11-18T17:59:22.487Z,17.40
2022-11-18T18:01:57.317Z,17.40
2022-11-18T18:04:27.269Z,17.40
2022-11-18T18:06:55.792Z,17.30
2022-11-18T18:09:30.418Z,17.30
2022-11-18T18:12:00.340Z,17.30
2022-11-18T18:14:27.889Z,17.20
2022-11-18T18:16:56.327Z,17.20
2022-11-18T18:19:24.803Z,17.20
2022-11-18T18:21:54.215Z,17.20
2022-11-18T18:24:23.207Z,17.30
2022-11-18T18:26:53.149Z,17.20
2022-11-18T18:29:21.589Z,17.20
2022-11-18T18:31:49.996Z,17.20
2022-11-18T18:34:19.314Z,17.20
2022-11-18T18:36:47.841Z,17.20
2022-11-18T18:39:16.358Z,17.10
2022-11-18T18:41:44.780Z,17.20
2022-11-18T18:44:18.530Z,17.10
2022-11-18T18:46:46.355Z,17.10
2022-11-18T18:49:18.287Z,17.00
2022-11-18T18:51:49.013Z,17.00
2022-11-18T18:54:18.982Z,17.00
2022-11-18T18:56:47.677Z,16.90
2022-11-18T18:59:19.825Z,16.90
2022-11-18T19:01:48.370Z,17.00
2022-11-18T19:04:17.604Z,16.90
2022-11-18T19:07:02.893Z,16.90
2022-11-18T19:09:31.312Z,16.90
2022-11-18T19:12:16.944Z,16.90
2022-11-18T19:14:46.788Z,16.90
2022-11-18T19:17:15.285Z,16.90
2022-11-18T19:20:01.968Z,16.80
2022-11-18T19:22:31.182Z,16.80
2022-11-18T19:25:00.040Z,16.80
2022-11-18T19:27:28.939Z,16.80
2022-11-18T19:29:58.752Z,16.80
2022-11-18T19:32:27.455Z,16.80
2022-11-18T19:34:55.881Z,16.70
2022-11-18T19:37:24.229Z,16.70
2022-11-18T19:39:52.703Z,16.70
2022-11-18T19:42:21.085Z,16.70
2022-11-18T19:44:49.651Z,16.70
2022-11-18T19:47:19.508Z,16.70
2022-11-18T19:49:47.949Z,16.60
2022-11-18T19:52:16.350Z,16.60
2022-11-18T19:54:44.813Z,16.60
2022-11-18T19:57:13.283Z,16.60
2022-11-18T19:59:41.666Z,16.60
2022-11-18T20:02:11.451Z,16.50
2022-11-18T20:05:01.314Z,16.50
2022-11-18T20:07:29.894Z,16.50
2022-11-18T20:09:58.401Z,16.50
2022-11-18T20:12:26.950Z,16.50
2022-11-18T20:14:55.360Z,16.50
2022-11-18T20:17:24.021Z,16.50
2022-11-18T20:19:53.762Z,16.50
2022-11-18T20:22:22.376Z,16.50
2022-11-18T20:24:50.893Z,16.40
2022-11-18T20:27:19.303Z,16.40
2022-11-18T20:29:47.760Z,16.40
2022-11-18T20:32:16.167Z,16.40
2022-11-18T20:34:44.559Z,16.50
2022-11-18T20:37:15.079Z,16.60
2022-11-18T20:39:43.444Z,16.60
2022-11-18T20:42:29.026Z,16.60
2022-11-18T20:44:57.368Z,16.60
2022-11-18T20:47:25.713Z,16.60
2022-11-18T20:49:54.178Z,16.60
2022-11-18T20:52:23.978Z,16.60
2022-11-18T20:54:52.362Z,16.60
2022-11-18T20:57:20.853Z,16.60
2022-11-18T20:59:49.272Z,16.60
2022-11-18T21:02:17.733Z,16.60
2022-11-18T21:04:46.114Z,16.50
2022-11-18T21:07:14.494Z,16.50
2022-11-18T21:09:45.244Z,16.50
2022-11-18T21:12:13.823Z,16.50
2022-11-18T21:14:41.171Z,16.50
2022-11-18T21:17:09.606Z,16.50
2022-11-18T21:19:38.029Z,16.50
2022-11-18T21:22:05.557Z,16.50
2022-11-18T21:24:35.379Z,16.50
2022-11-18T21:27:05.621Z,16.50
2022-11-18T21:29:33.968Z,16.30
2022-11-18T21:32:04.800Z,16.20
2022-11-18T21:34:33.304Z,16.10
2022-11-18T21:37:01.955Z,15.90
2022-11-18T21:39:32.751Z,15.80
2022-11-18T21:42:01.099Z,15.80
2022-11-18T21:44:30.845Z,15.80
2022-11-18T21:46:59.285Z,15.80
2022-11-18T21:49:27.699Z,15.80
2022-11-18T21:51:56.075Z,15.90
2022-11-18T21:54:24.481Z,15.90
2022-11-18T21:56:53.817Z,15.90
2022-11-18T21:59:23.680Z,15.90
2022-11-18T22:01:53.544Z,16.00
2022-11-18T22:04:38.964Z,16.00
2022-11-18T22:07:07.437Z,16.00
2022-11-18T22:09:37.029Z,16.00
2022-11-18T22:12:06.767Z,16.00
2022-11-18T22:14:35.353Z,15.90
2022-11-18T22:17:05.222Z,15.90
2022-11-18T22:19:33.691Z,15.80
2022-11-18T22:22:02.158Z,15.90
2022-11-18T22:24:30.563Z,15.80
2022-11-18T22:26:59.081Z,15.90
2022-11-18T22:29:27.422Z,15.80
2022-11-18T22:31:55.886Z,15.90
2022-11-18T22:34:25.772Z,15.90
2022-11-18T22:36:54.208Z,15.90
2022-11-18T22:39:25.526Z,15.90
2022-11-18T22:42:11.037Z,15.90
2022-11-18T22:44:39.434Z,15.90
2022-11-18T22:47:07.892Z,16.00
2022-11-18T22:49:37.692Z,16.00
2022-11-18T22:52:06.281Z,16.00
2022-11-18T22:54:39.602Z,16.00
2022-11-18T22:57:09.015Z,16.00
2022-11-18T22:59:37.487Z,15.90
2022-11-18T23:02:05.956Z,15.90
2022-11-18T23:04:34.458Z,15.90
2022-11-18T23:07:07.694Z,15.90
2022-11-18T23:09:36.067Z,15.90
2022-11-18T23:12:22.025Z,16.00
2022-11-18T23:14:50.384Z,16.00
2022-11-18T23:17:18.799Z,16.00
2022-11-18T23:19:47.326Z,16.00
2022-11-18T23:22:17.168Z,16.00
2022-11-18T23:24:45.712Z,16.00
2022-11-18T23:27:14.000Z,16.10
2022-11-18T23:29:42.460Z,16.10
2022-11-18T23:32:10.869Z,16.10
2022-11-18T23:34:39.222Z,16.10
2022-11-18T23:37:07.612Z,16.10
2022-11-18T23:39:37.443Z,16.20
2022-11-18T23:42:06.052Z,16.20
2022-11-18T23:44:52.803Z,16.20
2022-11-18T23:47:21.297Z,16.20
2022-11-18T23:49:49.757Z,16.10
2022-11-18T23:52:18.132Z,16.10
2022-11-18T23:54:52.030Z,16.10
2022-11-18T23:57:20.453Z,16.10
2022-11-18T23:59:48.829Z,16.10
